Time;durP1;ratioP1;P1;durP2;ratioP2;P2;SDS_P1;SDS_P2;PMS_P1;PMS_P2;Temp;Humidity;BMP_temperature;BMP_pressure;BME280_temperature;BME280_humidity;BME280_pressure;Samples;Min_cycle;Max_cycle;Signal;HPM_P1;HPM_P2
2022/05/17 00:01:39;;;;;;;;;;;16.40;99.90;;;;;;5022440;28;19928;-67
2022/05/17 00:04:06;;;;;;;;;;;16.40;99.90;;;;;;5023604;28;19921;-66
2022/05/17 00:06:32;;;;;;;;;;;16.40;99.90;;;;;;5022563;28;19929;-66
2022/05/17 00:08:59;;;;;;;;;;;16.30;99.90;;;;;;5023348;28;19921;-66
2022/05/17 00:11:26;;;;;;;;;;;16.30;99.90;;;;;;5020887;28;19929;-66
2022/05/17 00:13:54;;;;;;;;;;;16.20;99.90;;;;;;5023009;28;19921;-66
2022/05/17 00:16:20;;;;;;;;;;;16.10;99.90;;;;;;5022711;28;19975;-66
2022/05/17 00:18:47;;;;;;;;;;;16.10;99.90;;;;;;5020944;28;19922;-66
2022/05/17 00:21:14;;;;;;;;;;;16.00;99.90;;;;;;5023149;28;19928;-66
2022/05/17 00:23:41;;;;;;;;;;;15.90;99.90;;;;;;5022557;28;19938;-65
2022/05/17 00:26:08;;;;;;;;;;;15.80;99.90;;;;;;5021462;28;19921;-67
2022/05/17 00:28:35;;;;;;;;;;;15.80;99.90;;;;;;5023298;28;19921;-66
2022/05/17 00:31:06;;;;;;;;;;;15.70;99.90;;;;;;5023127;28;19925;-66
2022/05/17 00:33:33;;;;;;;;;;;15.60;99.90;;;;;;5023082;28;19940;-66
2022/05/17 00:35:59;;;;;;;;;;;15.60;99.90;;;;;;5022301;28;19929;-66
2022/05/17 00:38:26;;;;;;;;;;;15.50;99.90;;;;;;5019233;28;19921;-66
2022/05/17 00:40:52;;;;;;;;;;;15.40;99.90;;;;;;5027203;28;19922;-65
2022/05/17 00:43:28;;;;;;;;;;;15.50;99.90;;;;;;5026429;28;19952;-66
2022/05/17 00:45:54;;;;;;;;;;;15.40;99.90;;;;;;5025691;28;20116;-66
2022/05/17 00:48:23;;;;;;;;;;;15.30;99.90;;;;;;5017148;28;20209;-66
2022/05/17 00:50:50;;;;;;;;;;;15.30;99.90;;;;;;5007364;28;19921;-66
2022/05/17 00:53:19;;;;;;;;;;;15.30;99.90;;;;;;5023446;28;20231;-66
2022/05/17 00:55:47;;;;;;;;;;;15.30;99.90;;;;;;5024354;28;19927;-66
2022/05/17 00:58:17;;;;;;;;;;;15.30;99.90;;;;;;5024108;28;19963;-66
2022/05/17 01:00:45;;;;;;;;;;;15.30;99.90;;;;;;5027048;28;19921;-66
2022/05/17 01:03:14;;;;;;;;;;;15.30;99.90;;;;;;5027018;28;19928;-66
2022/05/17 01:05:44;;;;;;;;;;;15.30;99.90;;;;;;5025494;28;19944;-66
2022/05/17 01:08:11;;;;;;;;;;;15.30;99.90;;;;;;5026491;28;19925;-66
2022/05/17 01:10:38;;;;;;;;;;;15.30;99.90;;;;;;5026712;28;19928;-66
2022/05/17 01:15:51;;;;;;;;;;;15.10;99.90;;;;;;5025726;28;19924;-65
2022/05/17 01:18:17;;;;;;;;;;;15.10;99.90;;;;;;5026671;28;19922;-66
2022/05/17 01:20:46;;;;;;;;;;;15.10;99.90;;;;;;5026391;28;20231;-65
2022/05/17 01:23:16;;;;;;;;;;;15.00;99.90;;;;;;5023611;28;19925;-65
2022/05/17 01:25:44;;;;;;;;;;;15.10;99.90;;;;;;5025553;28;20144;-66
2022/05/17 01:28:13;;;;;;;;;;;15.10;99.90;;;;;;5026385;28;19922;-66
2022/05/17 01:30:40;;;;;;;;;;;15.00;99.90;;;;;;5026490;28;19929;-66
2022/05/17 01:33:07;;;;;;;;;;;15.00;99.90;;;;;;5023550;28;19968;-66
2022/05/17 01:35:33;;;;;;;;;;;15.00;99.90;;;;;;5025035;28;20296;-67
2022/05/17 01:38:00;;;;;;;;;;;15.10;99.90;;;;;;5026104;28;19922;-66
2022/05/17 01:40:28;;;;;;;;;;;15.00;99.90;;;;;;5025982;28;19992;-66
2022/05/17 01:42:55;;;;;;;;;;;15.00;99.90;;;;;;5025959;28;19921;-66
2022/05/17 01:45:21;;;;;;;;;;;15.00;99.90;;;;;;5024883;28;19921;-66
2022/05/17 01:47:48;;;;;;;;;;;15.10;99.90;;;;;;5025659;28;19921;-65
2022/05/17 01:50:14;;;;;;;;;;;15.10;99.90;;;;;;5024982;28;19988;-66
2022/05/17 01:52:41;;;;;;;;;;;15.10;99.90;;;;;;5025703;28;19922;-66
2022/05/17 01:55:08;;;;;;;;;;;15.10;99.90;;;;;;5025114;28;20152;-66
2022/05/17 01:57:37;;;;;;;;;;;15.10;99.90;;;;;;5022734;28;19929;-67
2022/05/17 02:00:05;;;;;;;;;;;15.10;99.90;;;;;;5025705;28;19928;-66
2022/05/17 02:02:33;;;;;;;;;;;15.10;99.90;;;;;;5025807;28;19922;-66
2022/05/17 02:04:59;;;;;;;;;;;15.10;99.90;;;;;;5025546;28;19921;-66
2022/05/17 02:07:26;;;;;;;;;;;15.00;99.90;;;;;;5021699;28;19928;-66
2022/05/17 02:09:52;;;;;;;;;;;15.00;99.90;;;;;;5025852;28;19921;-66
2022/05/17 02:12:19;;;;;;;;;;;15.10;99.90;;;;;;5025637;28;19928;-66
2022/05/17 02:14:47;;;;;;;;;;;15.00;99.90;;;;;;5025517;28;19922;-66
2022/05/17 02:17:13;;;;;;;;;;;15.00;99.90;;;;;;5024479;28;19931;-66
2022/05/17 02:19:40;;;;;;;;;;;15.00;99.90;;;;;;5025216;28;19951;-66
2022/05/17 02:22:07;;;;;;;;;;;14.90;99.90;;;;;;5025470;28;19922;-67
2022/05/17 02:24:34;;;;;;;;;;;14.90;99.90;;;;;;5025165;28;19921;-66
2022/05/17 02:27:00;;;;;;;;;;;14.90;99.90;;;;;;5024598;28;19928;-66
2022/05/17 02:29:29;;;;;;;;;;;14.90;99.90;;;;;;5025131;28;19993;-66
2022/05/17 02:31:57;;;;;;;;;;;14.90;99.90;;;;;;5025166;28;20090;-67
2022/05/17 02:34:25;;;;;;;;;;;14.90;99.90;;;;;;5022276;28;19922;-66
2022/05/17 02:36:51;;;;;;;;;;;14.80;99.90;;;;;;5024523;28;19921;-66
2022/05/17 02:39:18;;;;;;;;;;;14.70;99.90;;;;;;5024727;28;20097;-66
2022/05/17 02:41:44;;;;;;;;;;;14.70;99.90;;;;;;5025014;28;20132;-66
2022/05/17 02:44:12;;;;;;;;;;;14.70;99.90;;;;;;5017510;28;20105;-66
2022/05/17 02:46:38;;;;;;;;;;;14.70;99.90;;;;;;5013836;28;19921;-66
2022/05/17 02:49:07;;;;;;;;;;;14.70;99.90;;;;;;5007167;28;19985;-66
2022/05/17 02:51:35;;;;;;;;;;;14.70;99.90;;;;;;5004980;28;19929;-66
2022/05/17 02:54:05;;;;;;;;;;;14.70;99.90;;;;;;5005377;28;19953;-66
2022/05/17 02:56:31;;;;;;;;;;;14.70;99.90;;;;;;5004258;28;19945;-65
2022/05/17 02:58:58;;;;;;;;;;;14.70;99.90;;;;;;5004895;28;20232;-67
2022/05/17 03:01:25;;;;;;;;;;;14.60;99.90;;;;;;5004691;28;20312;-66
2022/05/17 03:03:51;;;;;;;;;;;14.60;99.90;;;;;;5004996;28;19921;-66
2022/05/17 03:06:19;;;;;;;;;;;14.60;99.90;;;;;;5004014;28;20086;-66
2022/05/17 03:08:46;;;;;;;;;;;14.60;99.90;;;;;;5001838;28;19922;-67
2022/05/17 03:11:12;;;;;;;;;;;14.60;99.90;;;;;;5002150;28;19922;-66
2022/05/17 03:13:39;;;;;;;;;;;14.50;99.90;;;;;;5005607;28;19922;-67
2022/05/17 03:16:06;;;;;;;;;;;14.60;99.90;;;;;;5023522;28;19981;-66
2022/05/17 03:18:34;;;;;;;;;;;14.50;99.90;;;;;;5010173;28;19929;-66
2022/05/17 03:21:01;;;;;;;;;;;14.50;99.90;;;;;;5012085;28;20145;-66
2022/05/17 03:23:29;;;;;;;;;;;14.40;99.90;;;;;;5004654;28;20109;-66
2022/05/17 03:25:55;;;;;;;;;;;14.40;99.90;;;;;;5003561;28;20256;-66
2022/05/17 03:28:22;;;;;;;;;;;14.40;99.90;;;;;;5004531;28;20157;-66
2022/05/17 03:30:49;;;;;;;;;;;14.40;99.90;;;;;;5004570;28;19921;-66
2022/05/17 03:33:15;;;;;;;;;;;14.40;99.90;;;;;;5004244;28;19929;-66
2022/05/17 03:35:43;;;;;;;;;;;14.40;99.90;;;;;;5003592;28;20117;-66
2022/05/17 03:38:09;;;;;;;;;;;14.40;99.90;;;;;;5004585;28;19949;-67
2022/05/17 03:40:37;;;;;;;;;;;14.30;99.90;;;;;;5001777;28;19930;-67
2022/05/17 03:43:04;;;;;;;;;;;14.30;99.90;;;;;;5004353;28;19922;-67
2022/05/17 03:45:31;;;;;;;;;;;14.30;99.90;;;;;;5003476;28;19929;-67
2022/05/17 03:47:57;;;;;;;;;;;14.30;99.90;;;;;;5003878;28;19922;-67
2022/05/17 03:50:24;;;;;;;;;;;14.30;99.90;;;;;;5002661;28;20144;-67
2022/05/17 03:52:50;;;;;;;;;;;14.40;99.90;;;;;;5003408;28;19921;-67
2022/05/17 03:55:17;;;;;;;;;;;14.40;99.90;;;;;;5003726;28;19921;-66
2022/05/17 03:57:45;;;;;;;;;;;14.40;99.90;;;;;;5013048;28;19944;-67
2022/05/17 04:00:12;;;;;;;;;;;14.40;99.90;;;;;;5023776;28;19922;-67
2022/05/17 04:02:39;;;;;;;;;;;14.40;99.90;;;;;;5023467;28;19964;-67
2022/05/17 04:05:06;;;;;;;;;;;14.40;99.90;;;;;;5009934;28;19922;-67
2022/05/17 04:07:33;;;;;;;;;;;14.40;99.90;;;;;;5003423;28;19922;-67
2022/05/17 04:10:00;;;;;;;;;;;14.50;99.90;;;;;;5005779;28;19922;-66
2022/05/17 04:12:26;;;;;;;;;;;14.50;99.90;;;;;;5020286;28;20138;-67
2022/05/17 04:14:55;;;;;;;;;;;14.60;99.90;;;;;;5021861;28;19921;-67
2022/05/17 04:17:21;;;;;;;;;;;14.60;99.90;;;;;;5022697;28;19928;-67
2022/05/17 04:19:48;;;;;;;;;;;14.60;99.90;;;;;;5023300;28;19922;-66
2022/05/17 04:22:15;;;;;;;;;;;14.70;99.90;;;;;;5009753;28;19932;-67
2022/05/17 04:24:41;;;;;;;;;;;14.70;99.90;;;;;;5022115;28;19921;-67
2022/05/17 04:27:08;;;;;;;;;;;14.70;99.90;;;;;;5014673;28;20164;-66
2022/05/17 04:29:35;;;;;;;;;;;14.70;99.90;;;;;;5016762;28;19928;-67
2022/05/17 04:32:03;;;;;;;;;;;14.70;99.90;;;;;;5018647;28;19928;-67
2022/05/17 04:34:31;;;;;;;;;;;14.80;99.90;;;;;;5021277;28;19928;-67
2022/05/17 04:36:58;;;;;;;;;;;14.90;99.90;;;;;;5022105;28;19925;-67
2022/05/17 04:39:25;;;;;;;;;;;14.90;99.90;;;;;;5023078;28;19928;-67
2022/05/17 04:41:51;;;;;;;;;;;14.90;99.90;;;;;;5023110;28;20285;-68
2022/05/17 04:44:18;;;;;;;;;;;15.00;99.90;;;;;;5010582;28;19922;-67
2022/05/17 04:46:44;;;;;;;;;;;15.00;99.90;;;;;;5022406;28;19921;-68
2022/05/17 04:49:12;;;;;;;;;;;15.10;99.90;;;;;;5023129;28;20217;-66
2022/05/17 04:51:39;;;;;;;;;;;15.10;99.90;;;;;;5020471;28;19991;-67
2022/05/17 04:54:05;;;;;;;;;;;15.10;99.90;;;;;;5023757;28;19921;-67
2022/05/17 04:56:35;;;;;;;;;;;15.10;99.90;;;;;;5014648;28;19922;-67
2022/05/17 04:59:01;;;;;;;;;;;15.10;99.90;;;;;;5023718;28;20144;-67
2022/05/17 05:01:28;;;;;;;;;;;15.10;99.90;;;;;;5023550;28;19921;-67
2022/05/17 05:03:56;;;;;;;;;;;15.10;99.90;;;;;;5020896;28;19929;-67
2022/05/17 05:06:27;;;;;;;;;;;15.10;99.90;;;;;;5003158;28;19922;-68
2022/05/17 05:08:53;;;;;;;;;;;15.20;99.90;;;;;;5004392;28;19922;-66
2022/05/17 05:11:20;;;;;;;;;;;15.20;99.90;;;;;;5011608;28;19929;-67
2022/05/17 05:13:47;;;;;;;;;;;15.30;99.90;;;;;;5000390;28;20101;-65
2022/05/17 05:16:14;;;;;;;;;;;15.30;99.90;;;;;;5002692;28;19930;-65
2022/05/17 05:18:41;;;;;;;;;;;15.40;99.90;;;;;;5003479;28;19922;-66
2022/05/17 05:21:09;;;;;;;;;;;15.40;99.90;;;;;;5003272;28;19993;-65
2022/05/17 05:23:37;;;;;;;;;;;15.60;99.90;;;;;;5000677;28;19981;-65
2022/05/17 05:26:04;;;;;;;;;;;15.60;99.90;;;;;;5004072;28;19922;-65
2022/05/17 05:28:31;;;;;;;;;;;15.70;99.90;;;;;;5006675;28;19929;-65
2022/05/17 05:30:58;;;;;;;;;;;15.80;99.90;;;;;;5024060;28;19928;-67
2022/05/17 05:33:25;;;;;;;;;;;15.90;99.90;;;;;;5026501;28;19964;-67
2022/05/17 05:35:52;;;;;;;;;;;15.90;99.90;;;;;;5025425;28;19956;-66
2022/05/17 05:38:19;;;;;;;;;;;16.00;99.90;;;;;;5026362;28;19921;-68
2022/05/17 05:40:47;;;;;;;;;;;16.10;99.90;;;;;;5026007;28;19922;-68
2022/05/17 05:43:13;;;;;;;;;;;16.10;99.90;;;;;;5026170;28;19922;-67
2022/05/17 05:48:08;;;;;;;;;;;16.20;99.90;;;;;;5042086;23;19921;-88
2022/05/17 05:50:35;;;;;;;;;;;16.20;99.90;;;;;;5013293;28;19922;-88
2022/05/17 05:53:04;;;;;;;;;;;16.30;99.90;;;;;;5022511;28;19956;-88
2022/05/17 05:55:31;;;;;;;;;;;16.40;99.90;;;;;;5030275;28;19921;-88
2022/05/17 05:58:00;;;;;;;;;;;16.50;99.90;;;;;;5026085;28;20263;-87
2022/05/17 06:00:27;;;;;;;;;;;16.50;99.90;;;;;;5026716;28;20008;-87
2022/05/17 06:02:54;;;;;;;;;;;16.60;99.90;;;;;;5023721;28;20147;-88
2022/05/17 06:05:22;;;;;;;;;;;16.70;99.90;;;;;;5013627;28;20001;-87
2022/05/17 06:07:48;;;;;;;;;;;16.70;99.90;;;;;;5013152;28;20148;-88
2022/05/17 06:10:16;;;;;;;;;;;16.80;99.90;;;;;;5022055;28;19933;-88
2022/05/17 06:12:43;;;;;;;;;;;16.80;99.90;;;;;;5035561;28;19945;-88
2022/05/17 06:15:11;;;;;;;;;;;16.90;99.90;;;;;;5030535;28;20284;-89
2022/05/17 06:17:38;;;;;;;;;;;16.90;99.90;;;;;;5031619;28;19921;-89
2022/05/17 06:20:06;;;;;;;;;;;17.00;99.90;;;;;;5030479;28;20084;-87
2022/05/17 06:22:32;;;;;;;;;;;17.10;99.90;;;;;;5026746;28;19928;-87
2022/05/17 06:24:59;;;;;;;;;;;17.10;99.90;;;;;;5025584;28;19921;-86
2022/05/17 06:27:26;;;;;;;;;;;17.20;99.90;;;;;;5024916;28;19922;-87
2022/05/17 06:29:52;;;;;;;;;;;17.20;99.90;;;;;;5025685;28;19944;-86
2022/05/17 06:32:21;;;;;;;;;;;17.30;99.90;;;;;;5025567;28;19921;-88
2022/05/17 06:34:47;;;;;;;;;;;17.30;99.90;;;;;;5025700;28;19928;-86
2022/05/17 06:37:14;;;;;;;;;;;17.30;99.90;;;;;;5025926;28;19922;-87
2022/05/17 06:39:41;;;;;;;;;;;17.40;99.90;;;;;;5025686;28;19922;-87
2022/05/17 06:42:09;;;;;;;;;;;17.40;99.90;;;;;;5024939;28;19976;-86
2022/05/17 06:44:37;;;;;;;;;;;17.50;99.90;;;;;;5025125;28;20224;-86
2022/05/17 06:47:03;;;;;;;;;;;17.50;99.90;;;;;;5024788;28;20113;-86
2022/05/17 06:49:32;;;;;;;;;;;17.50;99.90;;;;;;5025460;28;20153;-87
2022/05/17 06:52:00;;;;;;;;;;;17.50;99.90;;;;;;5025665;28;19922;-86
2022/05/17 06:54:28;;;;;;;;;;;17.60;99.90;;;;;;5024762;28;19984;-86
2022/05/17 06:56:54;;;;;;;;;;;17.60;99.90;;;;;;5023944;28;19976;-86
2022/05/17 06:59:22;;;;;;;;;;;17.70;99.90;;;;;;5024591;28;19928;-86
2022/05/17 07:01:55;;;;;;;;;;;17.90;99.90;;;;;;5025839;28;19980;-87
2022/05/17 07:04:22;;;;;;;;;;;18.00;99.90;;;;;;5031322;28;19930;-86
2022/05/17 07:06:50;;;;;;;;;;;18.10;99.90;;;;;;5024570;28;19989;-86
2022/05/17 07:09:16;;;;;;;;;;;18.10;99.90;;;;;;5016344;28;20211;-87
2022/05/17 07:14:28;;;;;;;;;;;18.30;99.90;;;;;;5024916;28;19956;-85
2022/05/17 07:16:56;;;;;;;;;;;18.50;99.90;;;;;;5024014;28;20231;-86
2022/05/17 07:19:22;;;;;;;;;;;18.50;99.90;;;;;;5024910;28;19944;-86
2022/05/17 07:21:50;;;;;;;;;;;18.60;99.90;;;;;;5026007;28;19921;-85
2022/05/17 07:24:19;;;;;;;;;;;18.60;99.90;;;;;;5025350;28;19944;-85
2022/05/17 07:26:45;;;;;;;;;;;18.70;99.90;;;;;;5024092;28;20235;-86
2022/05/17 07:29:12;;;;;;;;;;;18.70;99.90;;;;;;5024172;28;19948;-86
2022/05/17 07:31:39;;;;;;;;;;;18.80;99.90;;;;;;5024111;28;19928;-86
2022/05/17 07:34:06;;;;;;;;;;;19.00;99.90;;;;;;5024154;28;19988;-85
2022/05/17 07:36:32;;;;;;;;;;;19.00;99.90;;;;;;5023742;28;20277;-85
2022/05/17 07:39:00;;;;;;;;;;;19.00;99.90;;;;;;5024048;28;19922;-85
2022/05/17 07:41:27;;;;;;;;;;;19.10;99.90;;;;;;5023806;28;19921;-86
2022/05/17 07:43:54;;;;;;;;;;;19.20;99.90;;;;;;5023627;28;19927;-85
2022/05/17 07:46:20;;;;;;;;;;;19.20;99.90;;;;;;5023171;28;19921;-85
2022/05/17 07:48:47;;;;;;;;;;;19.20;99.90;;;;;;5023444;28;20236;-87
2022/05/17 07:51:14;;;;;;;;;;;19.20;99.90;;;;;;5024694;28;19957;-87
2022/05/17 07:53:41;;;;;;;;;;;19.20;99.90;;;;;;5032186;28;19980;-88
2022/05/17 07:56:09;;;;;;;;;;;19.30;99.90;;;;;;5034483;28;19933;-88
2022/05/17 07:58:36;;;;;;;;;;;19.30;99.90;;;;;;5025529;28;19936;-88
2022/05/17 08:01:04;;;;;;;;;;;19.40;99.90;;;;;;5025252;28;19921;-88
2022/05/17 08:03:30;;;;;;;;;;;19.50;99.90;;;;;;5025892;28;19921;-89
2022/05/17 08:05:57;;;;;;;;;;;19.40;99.90;;;;;;5026459;28;20090;-88
2022/05/17 08:08:24;;;;;;;;;;;19.50;99.90;;;;;;5031399;28;19977;-87
2022/05/17 08:10:51;;;;;;;;;;;19.40;99.90;;;;;;5030966;28;19981;-89
2022/05/17 08:13:19;;;;;;;;;;;19.50;99.90;;;;;;5033485;28;19977;-88
2022/05/17 08:15:46;;;;;;;;;;;19.60;99.90;;;;;;5033990;28;19988;-88
2022/05/17 08:18:13;;;;;;;;;;;19.60;99.90;;;;;;5031198;28;19928;-87
2022/05/17 08:20:39;;;;;;;;;;;19.70;99.90;;;;;;5029862;28;19922;-88
2022/05/17 08:23:06;;;;;;;;;;;19.70;99.90;;;;;;5034522;28;19921;-88
2022/05/17 08:28:19;;;;;;;;;;;19.70;99.90;;;;;;5036364;28;19929;-89
2022/05/17 08:30:47;;;;;;;;;;;19.80;99.90;;;;;;5036972;28;19977;-85
2022/05/17 08:33:17;;;;;;;;;;;19.80;99.90;;;;;;5036819;28;19921;-85
2022/05/17 08:35:46;;;;;;;;;;;19.80;99.90;;;;;;5034630;28;19984;-88
2022/05/17 08:38:14;;;;;;;;;;;19.80;99.90;;;;;;5035453;28;19933;-86
2022/05/17 08:40:49;;;;;;;;;;;19.80;99.90;;;;;;5026408;28;19955;-87
2022/05/17 08:43:23;;;;;;;;;;;19.90;99.90;;;;;;5032478;28;19945;-90
2022/05/17 08:45:59;;;;;;;;;;;20.00;99.90;;;;;;5028412;28;19945;-89
2022/05/17 08:48:29;;;;;;;;;;;20.00;99.90;;;;;;5027760;28;19997;-88
2022/05/17 08:50:56;;;;;;;;;;;20.00;99.90;;;;;;5024556;28;19989;-87
2022/05/17 08:53:22;;;;;;;;;;;20.10;99.90;;;;;;5024154;28;19955;-88
2022/05/17 08:55:51;;;;;;;;;;;20.10;99.90;;;;;;5023133;28;19921;-86
2022/05/17 08:58:20;;;;;;;;;;;20.20;99.90;;;;;;5023304;28;19929;-85
2022/05/17 09:00:48;;;;;;;;;;;20.20;99.90;;;;;;5026408;28;19997;-87
2022/05/17 09:03:24;;;;;;;;;;;20.30;99.90;;;;;;5027148;28;20147;-85
2022/05/17 09:05:56;;;;;;;;;;;20.30;99.90;;;;;;5027065;28;20116;-85
2022/05/17 09:08:25;;;;;;;;;;;20.30;99.90;;;;;;5027320;28;19992;-87
2022/05/17 09:10:54;;;;;;;;;;;20.30;99.90;;;;;;5027335;28;19943;-87
2022/05/17 09:13:22;;;;;;;;;;;20.40;99.90;;;;;;5027927;28;19929;-85
2022/05/17 09:15:50;;;;;;;;;;;20.40;99.90;;;;;;5028270;28;19929;-87
2022/05/17 09:18:18;;;;;;;;;;;20.50;99.90;;;;;;5027523;28;19944;-86
2022/05/17 09:20:46;;;;;;;;;;;20.60;99.90;;;;;;5027221;28;20119;-86
2022/05/17 09:23:13;;;;;;;;;;;20.60;99.90;;;;;;5027262;28;20012;-86
2022/05/17 09:26:03;;;;;;;;;;;20.70;99.90;;;;;;5027595;28;19921;-87
2022/05/17 09:28:43;;;;;;;;;;;20.80;99.90;;;;;;5028259;28;19921;-88
2022/05/17 09:31:11;;;;;;;;;;;21.00;99.90;;;;;;5030668;28;19988;-87
2022/05/17 09:33:39;;;;;;;;;;;20.90;99.90;;;;;;5027420;28;19922;-86
2022/05/17 09:36:08;;;;;;;;;;;21.00;99.90;;;;;;5030625;28;19944;-87
2022/05/17 09:38:36;;;;;;;;;;;21.00;99.90;;;;;;5027461;28;19929;-86
2022/05/17 09:41:06;;;;;;;;;;;21.00;99.90;;;;;;5027059;28;19922;-86
2022/05/17 09:43:43;;;;;;;;;;;21.20;99.90;;;;;;5027130;28;19922;-87
2022/05/17 09:46:11;;;;;;;;;;;21.20;99.90;;;;;;5026884;28;20090;-87
2022/05/17 09:54:08;;;;;;;;;;;21.50;99.90;;;;;;5026746;28;19928;-89
2022/05/17 09:56:34;;;;;;;;;;;21.60;99.90;;;;;;5026579;28;19922;-86
2022/05/17 09:59:01;;;;;;;;;;;21.80;99.90;;;;;;5027559;28;19921;-86
2022/05/17 10:01:36;;;;;;;;;;;21.70;99.90;;;;;;5026377;28;19921;-86
2022/05/17 10:04:05;;;;;;;;;;;21.70;99.90;;;;;;5026673;28;19921;-86
2022/05/17 10:06:35;;;;;;;;;;;21.60;99.90;;;;;;5026756;28;20216;-87
2022/05/17 10:09:03;;;;;;;;;;;21.70;99.90;;;;;;5026909;28;20209;-87
2022/05/17 10:11:40;;;;;;;;;;;21.80;99.90;;;;;;5025628;28;20123;-87
2022/05/17 10:14:10;;;;;;;;;;;21.90;99.90;;;;;;5026293;28;20129;-87
2022/05/17 10:16:39;;;;;;;;;;;22.00;99.90;;;;;;5026369;28;19929;-87
2022/05/17 10:19:09;;;;;;;;;;;22.10;99.90;;;;;;5029527;28;19928;-87
2022/05/17 10:21:39;;;;;;;;;;;22.00;99.90;;;;;;5028345;28;19949;-88
2022/05/17 10:24:10;;;;;;;;;;;22.00;99.90;;;;;;5032726;28;19921;-87
2022/05/17 10:26:40;;;;;;;;;;;22.00;99.90;;;;;;5028118;28;19921;-87
2022/05/17 10:29:09;;;;;;;;;;;22.00;99.90;;;;;;5026492;28;20004;-88
2022/05/17 10:31:43;;;;;;;;;;;21.90;99.90;;;;;;5026902;28;20152;-88
2022/05/17 10:34:13;;;;;;;;;;;22.00;99.90;;;;;;5026268;28;19921;-88
2022/05/17 10:36:43;;;;;;;;;;;22.10;99.90;;;;;;5025896;28;19978;-87
2022/05/17 10:39:15;;;;;;;;;;;22.30;99.90;;;;;;5026057;28;20259;-85
2022/05/17 10:41:42;;;;;;;;;;;22.30;99.90;;;;;;5026333;28;19921;-86
2022/05/17 10:44:09;;;;;;;;;;;22.60;99.90;;;;;;5025818;28;19984;-85
2022/05/17 10:46:38;;;;;;;;;;;22.90;99.90;;;;;;5025607;28;19992;-86
2022/05/17 10:49:12;;;;;;;;;;;23.00;99.90;;;;;;5026496;28;19971;-85
2022/05/17 10:51:45;;;;;;;;;;;23.00;99.90;;;;;;5028028;28;20306;-87
2022/05/17 10:54:17;;;;;;;;;;;23.00;99.90;;;;;;5028913;28;19993;-87
2022/05/17 10:56:48;;;;;;;;;;;23.10;99.90;;;;;;5035108;28;19948;-84
2022/05/17 10:59:18;;;;;;;;;;;23.20;99.90;;;;;;5029567;28;20146;-86
2022/05/17 11:01:52;;;;;;;;;;;23.40;99.90;;;;;;5041052;23;19921;-66
2022/05/17 11:04:36;;;;;;;;;;;23.60;99.90;;;;;;5024504;28;20126;-66
2022/05/17 11:07:09;;;;;;;;;;;23.60;99.90;;;;;;5024303;28;20102;-66
2022/05/17 11:09:40;;;;;;;;;;;23.80;99.90;;;;;;5024429;28;19922;-66
2022/05/17 11:12:09;;;;;;;;;;;24.00;99.90;;;;;;5023477;28;19921;-66
2022/05/17 11:14:43;;;;;;;;;;;24.20;99.90;;;;;;5034170;23;19979;-85
2022/05/17 11:17:14;;;;;;;;;;;24.30;99.90;;;;;;5039287;28;19927;-85
2022/05/17 11:19:43;;;;;;;;;;;24.60;99.90;;;;;;5043202;28;19928;-85
2022/05/17 11:22:15;;;;;;;;;;;24.80;99.90;;;;;;5039295;28;19941;-84
2022/05/17 11:24:59;;;;;;;;;;;24.80;99.90;;;;;;5045537;28;19969;-84
2022/05/17 11:27:32;;;;;;;;;;;24.60;99.90;;;;;;5053296;28;20142;-85
2022/05/17 11:30:09;;;;;;;;;;;24.40;99.90;;;;;;5091965;22;19927;-65
2022/05/17 11:32:36;;;;;;;;;;;24.30;99.90;;;;;;5068226;28;19935;-65
2022/05/17 11:35:24;;;;;;;;;;;24.30;99.90;;;;;;5062469;28;19920;-67
2022/05/17 11:37:52;;;;;;;;;;;24.30;99.90;;;;;;5063632;28;19921;-67
2022/05/17 11:40:38;;;;;;;;;;;24.30;99.90;;;;;;5063372;28;19927;-66
2022/05/17 11:45:57;;;;;;;;;;;24.40;99.90;;;;;;5037726;28;20151;-65
2022/05/17 11:48:24;;;;;;;;;;;24.70;99.90;;;;;;5043637;28;19963;-66
2022/05/17 11:50:56;;;;;;;;;;;24.80;99.90;;;;;;5044027;28;19921;-66
2022/05/17 11:53:40;;;;;;;;;;;24.40;99.90;;;;;;5043827;28;19921;-65
2022/05/17 11:56:15;;;;;;;;;;;24.10;99.90;;;;;;5043591;28;19921;-66
2022/05/17 11:58:42;;;;;;;;;;;23.80;99.90;;;;;;5043841;28;20085;-65
2022/05/17 12:01:23;;;;;;;;;;;23.90;99.90;;;;;;5043447;28;19941;-66
2022/05/17 12:03:51;;;;;;;;;;;24.20;99.90;;;;;;5043322;28;19921;-66
2022/05/17 12:06:29;;;;;;;;;;;24.30;99.90;;;;;;5042589;28;19922;-65
2022/05/17 12:08:57;;;;;;;;;;;24.40;99.90;;;;;;5043758;28;20086;-65
2022/05/17 12:11:29;;;;;;;;;;;24.20;99.90;;;;;;5040664;28;20127;-66
2022/05/17 12:14:08;;;;;;;;;;;24.10;99.90;;;;;;5043682;28;20147;-66
2022/05/17 12:16:36;;;;;;;;;;;24.10;99.90;;;;;;5042788;28;19988;-66
2022/05/17 12:19:05;;;;;;;;;;;24.30;99.90;;;;;;5046153;28;19925;-65
2022/05/17 12:21:40;;;;;;;;;;;24.50;99.90;;;;;;5043419;28;19943;-65
2022/05/17 12:24:11;;;;;;;;;;;24.80;99.90;;;;;;5043748;28;19921;-66
2022/05/17 12:26:49;;;;;;;;;;;25.10;99.90;;;;;;5042081;28;20094;-66
2022/05/17 12:32:00;;;;;;;;;;;25.70;99.90;;;;;;5062938;28;19951;-66
2022/05/17 12:34:27;;;;;;;;;;;25.80;99.90;;;;;;5064073;28;19921;-66
2022/05/17 12:37:06;;;;;;;;;;;26.00;99.90;;;;;;5064934;28;19921;-66
2022/05/17 12:45:17;;;;;;;;;;;25.80;99.90;;;;;;5024406;28;19941;-66
2022/05/17 12:47:44;;;;;;;;;;;26.00;99.90;;;;;;5071925;28;19937;-66
2022/05/17 12:50:15;;;;;;;;;;;26.20;99.90;;;;;;5086872;28;20207;-66
2022/05/17 12:52:41;;;;;;;;;;;26.50;99.90;;;;;;5087073;28;19927;-67
2022/05/17 12:55:12;;;;;;;;;;;26.60;99.90;;;;;;5086917;28;19921;-66
2022/05/17 12:57:40;;;;;;;;;;;26.40;99.90;;;;;;5086952;28;19920;-66
2022/05/17 13:00:11;;;;;;;;;;;26.20;99.90;;;;;;5086535;28;19920;-66
2022/05/17 13:02:40;;;;;;;;;;;26.00;99.90;;;;;;5086714;28;19973;-66
2022/05/17 13:05:22;;;;;;;;;;;25.90;99.90;;;;;;5086419;28;19927;-66
2022/05/17 13:07:58;;;;;;;;;;;25.80;99.90;;;;;;5086894;28;19920;-66
2022/05/17 13:10:26;;;;;;;;;;;25.80;99.90;;;;;;5086436;28;19926;-66
2022/05/17 13:12:55;;;;;;;;;;;25.70;99.90;;;;;;5084401;28;19928;-66
2022/05/17 13:15:22;;;;;;;;;;;25.40;99.90;;;;;;5086073;28;20110;-67
2022/05/17 13:17:52;;;;;;;;;;;25.10;99.90;;;;;;5086208;28;19921;-66
2022/05/17 13:20:20;;;;;;;;;;;24.70;99.90;;;;;;5083998;28;19920;-66
2022/05/17 13:22:51;;;;;;;;;;;24.40;99.90;;;;;;5066423;28;19979;-67
2022/05/17 13:25:19;;;;;;;;;;;24.10;99.90;;;;;;5065665;28;19928;-67
2022/05/17 13:27:48;;;;;;;;;;;24.20;99.90;;;;;;5066250;28;19933;-66
2022/05/17 13:30:23;;;;;;;;;;;24.50;99.90;;;;;;5072646;28;20211;-66
2022/05/17 13:32:50;;;;;;;;;;;25.00;99.90;;;;;;5086330;28;19927;-66
2022/05/17 13:35:19;;;;;;;;;;;25.40;99.90;;;;;;5073559;28;19920;-64
2022/05/17 13:38:05;;;;;;;;;;;25.90;99.90;;;;;;5065440;28;19927;-66
2022/05/17 13:40:36;;;;;;;;;;;26.30;99.90;;;;;;5065994;28;20263;-66
2022/05/17 13:43:17;;;;;;;;;;;26.70;99.90;;;;;;5065911;28;19927;-66
2022/05/17 13:45:56;;;;;;;;;;;27.10;99.90;;;;;;5069441;28;19951;-67
2022/05/17 13:48:23;;;;;;;;;;;27.50;99.90;;;;;;5085381;28;19948;-67
2022/05/17 13:50:53;;;;;;;;;;;27.80;99.90;;;;;;5083191;28;19921;-66
2022/05/17 13:53:20;;;;;;;;;;;27.80;98.90;;;;;;5085666;28;20207;-66
2022/05/17 13:55:48;;;;;;;;;;;27.60;99.30;;;;;;5084275;28;19920;-67
2022/05/17 13:58:16;;;;;;;;;;;27.70;98.40;;;;;;5081461;28;19921;-66
2022/05/17 14:00:57;;;;;;;;;;;27.80;97.90;;;;;;5065341;28;19932;-67
2022/05/17 14:03:25;;;;;;;;;;;28.00;98.10;;;;;;5065664;28;19955;-67
2022/05/17 14:05:55;;;;;;;;;;;28.40;97.60;;;;;;5065201;28;19928;-67
2022/05/17 14:14:00;;;;;;;;;;;29.10;95.20;;;;;;5067969;28;19924;-67
2022/05/17 14:16:29;;;;;;;;;;;29.40;93.80;;;;;;5064532;28;20239;-67
2022/05/17 14:18:56;;;;;;;;;;;29.50;93.40;;;;;;5073972;28;19920;-67
2022/05/17 14:21:22;;;;;;;;;;;29.60;93.70;;;;;;5085119;28;20101;-66
2022/05/17 14:23:50;;;;;;;;;;;29.40;92.20;;;;;;5084368;28;19927;-67
2022/05/17 14:26:18;;;;;;;;;;;29.40;92.10;;;;;;5084252;28;19920;-66
2022/05/17 14:28:45;;;;;;;;;;;29.20;92.70;;;;;;5077414;28;19925;-67
2022/05/17 14:31:15;;;;;;;;;;;29.20;93.50;;;;;;5065268;28;19927;-67
2022/05/17 14:33:41;;;;;;;;;;;29.20;93.20;;;;;;5064881;28;19928;-67
2022/05/17 14:36:09;;;;;;;;;;;29.00;92.80;;;;;;5064410;28;19921;-67
2022/05/17 14:38:35;;;;;;;;;;;29.00;92.30;;;;;;5064556;28;19956;-67
2022/05/17 14:41:02;;;;;;;;;;;29.10;92.00;;;;;;5064883;28;19921;-66
2022/05/17 14:43:28;;;;;;;;;;;29.10;91.60;;;;;;5081348;28;19926;-66
2022/05/17 14:45:56;;;;;;;;;;;28.90;90.50;;;;;;5076324;28;19921;-67
2022/05/17 14:48:25;;;;;;;;;;;29.00;90.90;;;;;;5063667;28;19927;-67
2022/05/17 14:50:51;;;;;;;;;;;29.30;90.10;;;;;;5063430;28;20001;-67
2022/05/17 14:53:18;;;;;;;;;;;29.40;90.10;;;;;;5078996;28;19920;-66
2022/05/17 14:55:45;;;;;;;;;;;29.20;90.40;;;;;;5076562;28;19927;-67
2022/05/17 14:58:12;;;;;;;;;;;28.70;91.20;;;;;;5064048;28;19920;-67